Time;durP1;ratioP1;P1;durP2;ratioP2;P2;SDS_P1;SDS_P2;PMS_P1;PMS_P2;Temp;Humidity;BMP_temperature;BMP_pressure;BME280_temperature;BME280_humidity;BME280_pressure;Samples;Min_cycle;Max_cycle;Signal;HPM_P1;HPM_P2
2021/07/02 00:01:23;;;;;;;14.00;7.03;;;12.80;99.90;;;11.66;100.00;97692.25;5018424;28;20038;-65
2021/07/02 00:04:11;;;;;;;8.77;5.53;;;12.80;99.90;;;11.72;100.00;97694.56;5025736;28;20522;-65
2021/07/02 00:06:58;;;;;;;12.38;6.68;;;12.80;99.90;;;11.78;100.00;97696.06;5029436;28;20415;-65
2021/07/02 00:09:46;;;;;;;10.85;6.10;;;12.80;99.90;;;11.81;100.00;97685.50;5023080;28;20057;-66
2021/07/02 00:12:34;;;;;;;17.38;7.07;;;12.80;99.90;;;11.90;99.70;97690.31;5024684;28;20060;-65
2021/07/02 00:15:23;;;;;;;15.50;5.55;;;12.70;99.90;;;11.89;99.07;97692.09;5024462;28;20072;-66
2021/07/02 00:18:11;;;;;;;11.38;5.95;;;12.70;99.90;;;11.89;99.03;97692.09;5019594;28;20507;-66
2021/07/02 00:20:58;;;;;;;14.00;5.72;;;12.70;99.90;;;11.85;99.08;97692.25;5025528;28;20049;-66
2021/07/02 00:23:45;;;;;;;9.10;5.13;;;12.70;99.90;;;11.95;98.60;97685.78;5029918;28;20340;-65
2021/07/02 00:26:35;;;;;;;11.57;4.88;;;12.60;99.90;;;11.87;99.26;97683.50;5027984;28;20084;-66
2021/07/02 00:29:22;;;;;;;11.60;6.35;;;12.60;99.90;;;11.76;100.00;97680.50;5026205;28;20038;-66
2021/07/02 00:32:11;;;;;;;10.40;5.47;;;12.70;99.90;;;12.08;99.43;97675.63;5022868;28;20124;-65
2021/07/02 00:34:59;;;;;;;10.90;5.72;;;12.80;99.90;;;11.87;99.60;97675.69;5020398;28;20046;-65
2021/07/02 00:37:46;;;;;;;13.90;7.78;;;12.90;99.90;;;11.73;100.00;97685.88;5021123;28;20049;-66
2021/07/02 00:40:34;;;;;;;13.63;6.13;;;12.90;99.90;;;11.65;100.00;97680.16;5024052;28;20080;-66
2021/07/02 00:43:21;;;;;;;10.70;6.25;;;12.90;99.90;;;11.73;100.00;97673.69;5021429;28;20038;-66
2021/07/02 00:46:08;;;;;;;13.10;6.82;;;12.90;99.90;;;11.68;100.00;97677.44;5023628;28;20045;-66
2021/07/02 00:48:56;;;;;;;9.18;5.38;;;12.80;99.90;;;11.71;100.00;97672.09;5017679;28;20033;-66
2021/07/02 00:51:44;;;;;;;11.50;5.85;;;12.60;99.90;;;11.65;100.00;97680.16;5021108;28;20053;-66
2021/07/02 00:54:36;;;;;;;11.63;7.10;;;12.60;99.90;;;11.59;100.00;97676.09;5022686;28;20577;-66
2021/07/02 00:57:23;;;;;;;14.40;6.55;;;12.50;99.90;;;11.42;100.00;97671.63;5024240;28;20049;-65
2021/07/02 01:00:12;;;;;;;11.73;6.30;;;12.60;99.90;;;11.35;100.00;97669.38;5016405;28;20116;-65
2021/07/02 01:02:59;;;;;;;12.05;5.53;;;12.60;99.90;;;11.53;100.00;97676.34;5022012;28;20037;-65
2021/07/02 01:05:46;;;;;;;14.35;7.43;;;12.50;99.90;;;11.39;100.00;97671.78;5026983;28;20046;-66
2021/07/02 01:08:35;;;;;;;15.32;7.53;;;12.50;99.90;;;11.30;100.00;97674.78;5020318;28;20041;-65
2021/07/02 01:11:22;;;;;;;14.63;7.25;;;12.50;99.90;;;11.30;100.00;97667.81;5014373;28;20046;-66
2021/07/02 01:14:10;;;;;;;14.30;6.82;;;12.50;99.90;;;11.35;100.00;97672.81;5013377;28;20041;-65
2021/07/02 01:16:58;;;;;;;17.25;7.20;;;12.60;99.90;;;11.41;100.00;97667.38;5021489;28;20475;-66
2021/07/02 01:19:51;;;;;;;18.90;7.95;;;12.60;99.90;;;11.44;100.00;97667.22;5019624;28;20064;-66
2021/07/02 01:22:39;;;;;;;11.10;5.95;;;12.60;99.90;;;11.60;100.00;97664.78;5020365;28;20115;-66
2021/07/02 01:25:33;;;;;;;11.65;6.68;;;12.60;99.90;;;11.57;100.00;97658.88;5025355;28;20118;-66
2021/07/02 01:28:21;;;;;;;15.57;7.13;;;12.60;99.90;;;11.45;100.00;97665.47;5010396;28;20041;-66
2021/07/02 01:31:08;;;;;;;16.50;7.90;;;12.60;99.90;;;11.43;100.00;97657.75;5010316;28;20033;-65
2021/07/02 01:33:56;;;;;;;8.70;5.45;;;12.60;99.90;;;11.51;100.00;97663.41;5022048;28;20152;-66
2021/07/02 01:36:44;;;;;;;11.68;6.20;;;12.60;99.90;;;11.49;100.00;97662.69;5030138;28;20049;-65
2021/07/02 01:39:32;;;;;;;10.68;6.03;;;12.60;99.90;;;11.42;100.00;97656.03;5009734;28;20088;-66
2021/07/02 01:42:19;;;;;;;11.20;6.43;;;12.50;99.90;;;11.64;100.00;97661.13;5029620;28;20108;-66
2021/07/02 01:45:10;;;;;;;10.27;5.88;;;12.50;99.90;;;11.59;100.00;97664.88;5014197;28;20041;-65
2021/07/02 01:47:58;;;;;;;10.70;5.10;;;12.50;99.90;;;11.60;100.00;97667.38;5027233;28;20088;-66
2021/07/02 01:50:46;;;;;;;9.40;4.70;;;12.40;99.90;;;11.54;100.00;97672.88;5024200;28;20037;-65
2021/07/02 01:53:33;;;;;;;11.02;5.72;;;12.40;99.90;;;11.53;100.00;97671.16;5024761;28;20033;-66
2021/07/02 01:56:20;;;;;;;15.23;7.18;;;12.40;99.90;;;11.46;100.00;97672.34;5019615;28;20077;-65
2021/07/02 01:59:08;;;;;;;13.18;7.05;;;12.40;99.90;;;11.45;100.00;97670.69;5007549;28;20474;-65
2021/07/02 02:01:55;;;;;;;19.80;7.22;;;12.50;99.90;;;11.64;100.00;97668.09;5027639;28;20053;-65
2021/07/02 02:04:44;;;;;;;13.32;7.20;;;12.60;99.90;;;11.84;100.00;97667.19;5026462;28;20460;-65
2021/07/02 02:07:31;;;;;;;14.13;6.45;;;12.60;99.90;;;11.81;100.00;97659.50;5025735;28;20072;-65
2021/07/02 02:10:19;;;;;;;13.07;7.22;;;12.70;99.90;;;11.87;100.00;97657.50;5028084;28;20426;-65
2021/07/02 02:13:06;;;;;;;12.35;7.45;;;12.70;99.90;;;11.82;100.00;97662.03;5023506;28;20041;-64
2021/07/02 02:15:46;;;;;;;25.00;9.45;;;12.70;99.90;;;11.83;100.00;97666.31;5041456;23;20046;-89
2021/07/02 02:18:37;;;;;;;17.30;8.25;;;12.60;99.90;;;11.88;100.00;97663.53;5016163;28;20128;-90
2021/07/02 02:21:24;;;;;;;14.15;7.45;;;12.60;99.90;;;11.88;100.00;97660.94;5003852;28;20474;-89
2021/07/02 02:24:12;;;;;;;15.50;8.40;;;12.60;99.90;;;11.72;100.00;97656.44;5003652;28;20038;-89
2021/07/02 02:27:00;;;;;;;12.75;7.53;;;12.70;99.90;;;11.62;100.00;97657.75;5013500;28;20112;-91
2021/07/02 02:29:50;;;;;;;14.95;7.60;;;12.60;99.90;;;11.62;100.00;97662.94;4987374;28;20052;-90
2021/07/02 02:32:43;;;;;;;19.08;9.82;;;12.60;99.90;;;11.41;100.00;97656.13;4967219;28;20054;-91
2021/07/02 02:35:38;;;;;;;14.55;7.80;;;12.50;99.90;;;11.58;100.00;97645.78;4984955;28;20102;-91
2021/07/02 02:38:26;;;;;;;15.38;7.60;;;12.50;99.90;;;11.62;100.00;97649.94;4972080;28;20341;-91
2021/07/02 02:41:16;;;;;;;14.63;8.98;;;12.50;99.90;;;11.56;100.00;97652.81;4985650;28;20034;-91
2021/07/02 02:44:05;;;;;;;15.70;8.88;;;12.50;99.90;;;11.58;100.00;97656.19;5000295;28;20037;-90
2021/07/02 02:46:53;;;;;;;16.77;8.82;;;12.40;99.90;;;11.53;100.00;97655.56;5016565;28;20041;-89
2021/07/02 02:49:48;;;;;;;15.18;8.35;;;12.30;99.90;;;11.56;100.00;97652.81;5003743;28;20491;-91
2021/07/02 02:52:36;;;;;;;12.85;8.38;;;12.30;99.90;;;11.62;100.00;97649.94;4992198;28;20507;-91
2021/07/02 02:55:36;;;;;;;12.77;8.23;;;12.30;99.90;;;11.59;100.00;97657.91;5027708;28;20045;-89
2021/07/02 02:58:43;;;;;;;16.80;9.60;;;12.20;99.90;;;11.39;100.00;97652.75;5017566;28;20049;-89
2021/07/02 03:01:34;;;;;;;17.17;9.57;;;12.30;99.90;;;11.34;100.00;97659.91;5027452;28;20063;-89
2021/07/02 03:04:52;;;;;;;15.63;7.88;;;12.20;99.90;;;11.45;100.00;97653.31;5007918;28;20084;-91
2021/07/02 03:08:11;;;;;;;18.77;9.18;;;12.20;99.90;;;11.36;100.00;97660.66;5015128;28;20042;-91
2021/07/02 03:10:59;;;;;;;14.85;8.50;;;12.10;99.90;;;11.37;100.00;97662.38;5018476;28;20410;-89
2021/07/02 03:13:50;;;;;;;19.80;8.30;;;12.10;99.90;;;11.32;100.00;97669.53;5019738;28;20045;-90
2021/07/02 03:17:14;;;;;;;15.55;7.80;;;12.10;99.90;;;11.35;100.00;97661.59;5007096;28;20088;-91
2021/07/02 03:20:13;;;;;;;12.77;8.25;;;12.10;99.90;;;11.28;100.00;97671.41;5011744;28;20060;-90
2021/07/02 03:23:06;;;;;;;17.52;10.10;;;12.10;99.90;;;11.10;100.00;97673.03;4999869;28;20411;-89
2021/07/02 03:26:34;;;;;;;;;;;;;;;;;;;;;
2021/07/02 03:29:53;;;;;;;17.05;9.25;;;12.20;99.90;;;11.01;100.00;97676.88;5016731;28;20053;-90
2021/07/02 03:32:46;;;;;;;21.87;10.60;;;12.20;99.90;;;11.02;100.00;97677.75;5015079;28;20053;-92
2021/07/02 03:35:36;;;;;;;14.73;8.80;;;12.10;99.90;;;11.08;100.00;97677.47;5003098;28;20385;-90
2021/07/02 03:38:23;;;;;;;16.02;9.07;;;12.00;99.90;;;11.17;100.00;97674.47;5014028;28;20571;-88
2021/07/02 03:41:11;;;;;;;16.63;9.43;;;11.90;99.90;;;11.21;100.00;97677.78;5007226;28;20044;-89
2021/07/02 03:43:59;;;;;;;14.32;8.63;;;11.90;99.90;;;11.02;100.00;97677.75;4996767;28;20048;-89
2021/07/02 03:46:49;;;;;;;14.10;8.20;;;11.90;99.90;;;11.03;100.00;97674.22;5004647;28;20042;-90
2021/07/02 03:49:39;;;;;;;19.42;9.82;;;11.80;99.90;;;10.85;100.00;97670.66;5010872;28;20120;-89
2021/07/02 03:52:27;;;;;;;22.58;10.48;;;11.80;99.90;;;10.81;100.00;97682.06;5018190;28;20053;-90
2021/07/02 03:55:14;;;;;;;21.73;11.18;;;11.90;99.90;;;10.77;100.00;97680.53;5006132;28;20065;-93
2021/07/02 03:58:04;;;;;;;22.75;11.15;;;11.80;99.90;;;10.72;100.00;97687.66;5021305;28;20132;-92
2021/07/02 04:00:52;;;;;;;15.27;9.45;;;11.90;99.90;;;10.79;100.00;97692.53;5020295;28;20073;-91
2021/07/02 04:03:42;;;;;;;17.17;9.20;;;11.90;99.90;;;10.82;100.00;97683.78;4998956;28;20541;-90
2021/07/02 04:06:31;;;;;;;14.80;9.38;;;11.80;99.90;;;10.92;100.00;97702.41;5009134;28;20120;-91
2021/07/02 04:09:20;;;;;;;19.77;10.27;;;11.90;99.90;;;10.98;100.00;97699.56;5025777;28;20049;-91
2021/07/02 04:12:17;;;;;;;17.95;10.60;;;11.90;99.90;;;11.07;100.00;97699.16;5009850;28;20056;-92
2021/07/02 04:15:09;;;;;;;16.70;9.55;;;12.10;99.90;;;11.37;96.96;97703.94;5008292;28;20079;-92
2021/07/02 04:17:59;;;;;;;17.95;9.93;;;12.20;99.90;;;11.70;92.02;97699.84;5007833;28;20445;-91
2021/07/02 04:20:50;;;;;;;15.27;8.60;;;12.40;99.90;;;11.80;93.66;97707.25;5008911;28;20652;-90
2021/07/02 04:23:40;;;;;;;18.17;9.35;;;12.70;99.90;;;11.86;91.83;97701.75;5023962;28;20373;-91
2021/07/02 04:26:27;;;;;;;12.55;8.15;;;12.90;99.90;;;12.03;88.61;97691.44;4991749;28;20080;-90
2021/07/02 04:29:28;;;;;;;15.73;8.18;;;13.00;99.90;;;12.08;88.61;97697.25;5005529;28;20208;-90
2021/07/02 04:32:16;;;;;;;13.77;7.88;;;13.20;99.90;;;12.30;84.90;97706.69;4993591;28;20046;-88
2021/07/02 04:35:06;;;;;;;13.30;7.80;;;13.30;99.90;;;12.37;84.02;97715.03;5022267;28;20173;-88
2021/07/02 04:37:53;;;;;;;16.30;8.18;;;13.40;99.90;;;12.44;85.61;97711.22;5032652;28;20102;-89
2021/07/02 04:40:40;;;;;;;14.30;9.02;;;13.50;99.90;;;12.59;81.68;97705.28;4986881;28;20104;-87
2021/07/02 04:43:28;;;;;;;15.43;9.27;;;13.70;99.90;;;12.68;85.25;97709.19;4975269;28;20108;-88
2021/07/02 04:46:15;;;;;;;13.38;8.35;;;13.80;99.90;;;12.83;83.97;97705.00;4989742;28;20215;-87
2021/07/02 04:49:03;;;;;;;16.08;9.35;;;13.90;99.90;;;12.88;82.62;97701.22;5003184;28;20037;-86
2021/07/02 04:51:50;;;;;;;16.80;9.13;;;14.00;99.90;;;13.03;82.98;97712.66;5004656;28;20037;-86
2021/07/02 04:54:38;;;;;;;13.80;9.02;;;14.10;99.90;;;12.96;76.56;97714.72;4985404;28;20042;-86
2021/07/02 04:57:25;;;;;;;17.08;9.77;;;14.10;99.90;;;13.13;81.24;97713.88;5015275;28;20048;-86
2021/07/02 05:00:14;;;;;;;13.77;8.43;;;14.30;99.90;;;13.31;79.32;97706.91;5015837;28;20045;-86
2021/07/02 05:03:01;;;;;;;12.40;7.88;;;14.30;99.90;;;13.33;80.35;97707.66;5017092;28;20095;-86
2021/07/02 05:05:49;;;;;;;16.33;8.90;;;14.40;99.90;;;13.42;78.25;97701.13;5018809;28;20533;-86
2021/07/02 05:08:39;;;;;;;13.13;8.48;;;14.60;99.90;;;13.49;75.71;97705.09;5000279;28;20092;-86
2021/07/02 05:11:26;;;;;;;12.18;7.15;;;14.60;99.90;;;13.75;77.53;97713.31;4999083;28;20417;-86
2021/07/02 05:14:14;;;;;;;15.13;9.50;;;14.90;99.90;;;13.71;77.44;97704.84;5004555;28;20084;-86
2021/07/02 05:17:04;;;;;;;13.43;8.27;;;14.90;99.90;;;13.68;77.20;97714.56;5017165;28;20064;-86
2021/07/02 05:19:52;;;;;;;13.95;9.45;;;15.00;99.90;;;13.74;77.43;97715.09;5017221;28;20061;-86
2021/07/02 05:22:39;;;;;;;16.92;8.23;;;15.10;99.90;;;13.93;77.36;97714.09;4991427;28;20042;-87
2021/07/02 05:25:27;;;;;;;13.27;7.72;;;15.20;99.90;;;14.11;76.76;97718.31;4996271;28;20045;-86
2021/07/02 05:28:14;;;;;;;12.68;8.55;;;15.30;99.90;;;14.25;76.23;97714.94;5013481;28;20042;-85
2021/07/02 05:31:02;;;;;;;14.95;8.80;;;15.50;99.90;;;14.45;74.93;97719.06;5017841;28;20128;-87
2021/07/02 05:33:49;;;;;;;11.75;7.78;;;15.70;99.90;;;14.40;75.44;97718.50;4976789;28;20057;-86
2021/07/02 05:36:36;;;;;;;12.82;8.43;;;15.70;99.90;;;14.31;75.52;97714.63;5018554;28;20042;-86
2021/07/02 05:39:24;;;;;;;18.52;8.52;;;15.70;99.90;;;14.28;74.86;97708.72;5001607;28;20041;-85
2021/07/02 05:42:11;;;;;;;10.82;7.50;;;15.50;99.90;;;14.28;73.49;97712.19;5030417;28;20041;-86
2021/07/02 05:44:59;;;;;;;13.90;8.18;;;15.40;99.90;;;14.13;75.84;97710.41;4991152;28;20037;-87
2021/07/02 05:47:48;;;;;;;13.10;8.15;;;15.30;99.90;;;14.12;75.99;97717.41;4998363;28;20095;-87
2021/07/02 05:50:38;;;;;;;13.55;7.30;;;15.20;99.90;;;14.17;76.65;97720.59;5011536;28;20030;-87
2021/07/02 05:53:25;;;;;;;15.02;8.50;;;15.20;99.90;;;14.00;77.33;97720.66;5004530;28;20057;-86
2021/07/02 05:56:13;;;;;;;15.68;8.73;;;15.10;99.90;;;14.07;75.44;97721.19;4984464;28;20417;-86
2021/07/02 05:59:01;;;;;;;14.35;8.27;;;15.10;99.90;;;14.18;73.75;97730.09;4992277;28;20155;-86
2021/07/02 06:01:48;;;;;;;16.17;8.93;;;15.20;99.90;;;14.35;74.59;97723.97;5006157;28;20055;-86
2021/07/02 06:04:35;;;;;;;12.05;7.75;;;15.50;99.90;;;14.72;75.81;97714.09;5005875;28;20038;-88
2021/07/02 06:07:22;;;;;;;12.88;7.20;;;15.80;99.90;;;15.02;73.56;97729.78;4991871;28;20037;-87
2021/07/02 06:10:11;;;;;;;13.43;9.07;;;16.10;99.90;;;14.90;73.40;97725.25;4993571;28;20054;-86
2021/07/02 06:12:58;;;;;;;15.20;8.32;;;16.30;99.90;;;14.99;74.09;97729.13;4981952;28;20045;-87
2021/07/02 06:15:46;;;;;;;12.20;7.75;;;16.20;99.90;;;15.08;74.19;97728.59;5000590;28;20046;-87
2021/07/02 06:18:34;;;;;;;15.88;7.93;;;16.40;99.90;;;15.07;73.75;97729.50;4991075;28;20042;-86
2021/07/02 06:21:21;;;;;;;15.52;8.35;;;16.50;99.90;;;15.16;68.93;97738.59;5002301;28;20121;-87
2021/07/02 06:24:08;;;;;;;10.45;6.80;;;16.60;99.90;;;15.52;71.03;97739.97;5015135;28;20044;-87
2021/07/02 06:26:56;;;;;;;12.73;6.68;;;16.70;99.90;;;15.71;72.02;97730.09;5023478;28;20048;-86
2021/07/02 06:29:43;;;;;;;17.27;7.28;;;16.90;99.90;;;15.71;68.79;97731.88;4984238;28;20052;-87
2021/07/02 06:32:30;;;;;;;13.93;8.20;;;17.00;99.90;;;15.77;71.05;97739.34;5009188;28;20053;-86
2021/07/02 06:35:18;;;;;;;11.57;7.32;;;17.10;99.90;;;15.85;67.93;97734.47;4997792;28;20140;-86
2021/07/02 06:38:06;;;;;;;13.15;6.32;;;17.20;99.90;;;15.92;65.40;97742.78;5007180;28;20053;-86
2021/07/02 06:40:53;;;;;;;11.48;7.05;;;17.30;99.90;;;15.52;63.44;97742.56;4983440;28;20050;-86
2021/07/02 06:43:40;;;;;;;11.10;6.63;;;17.30;99.90;;;15.75;64.54;97743.84;5031966;28;20049;-85
2021/07/02 06:46:32;;;;;;;13.20;6.65;;;17.30;99.90;;;15.96;69.09;97749.53;4988204;28;20076;-86
2021/07/02 06:49:20;;;;;;;11.70;6.80;;;17.30;99.90;;;15.85;64.18;97742.31;4997467;28;20410;-87
2021/07/02 06:51:50;;;;;;;13.27;7.00;;;17.30;99.90;;;15.88;64.21;97737.75;4997713;28;20145;-87
2021/07/02 06:54:17;;;;;;;15.02;7.45;;;17.20;99.90;;;15.69;63.38;97743.25;4975202;28;20042;-87
2021/07/02 06:57:08;;;;;;;11.77;6.93;;;17.20;99.90;;;16.18;65.62;97747.25;4953376;28;20143;-87
2021/07/02 06:59:37;;;;;;;11.48;6.68;;;17.30;99.90;;;15.82;62.16;97747.75;5006445;28;20053;-87
2021/07/02 07:02:08;;;;;;;9.88;6.47;;;17.40;99.90;;;15.87;61.51;97751.78;4992020;28;20045;-87
2021/07/02 07:04:36;;;;;;;8.73;5.90;;;17.40;99.90;;;16.06;61.46;97758.50;4996649;28;20240;-86
2021/07/02 07:07:06;;;;;;;15.70;6.88;;;17.40;99.90;;;16.28;60.88;97750.13;5010364;28;20546;-85
2021/07/02 07:09:34;;;;;;;10.45;6.03;;;17.50;99.90;;;16.04;59.08;97752.53;4980765;28;20041;-86
2021/07/02 07:12:03;;;;;;;11.80;6.10;;;17.60;99.90;;;16.07;59.04;97760.19;4987240;28;20506;-87
2021/07/02 07:14:30;;;;;;;15.43;6.07;;;17.70;99.90;;;16.18;59.38;97749.88;4996760;28;20045;-86
2021/07/02 07:16:58;;;;;;;11.98;6.57;;;17.80;99.90;;;16.41;60.48;97748.41;4997608;28;20069;-86
2021/07/02 07:19:28;;;;;;;11.27;6.10;;;17.80;99.90;;;16.24;53.56;97746.06;4999171;28;20056;-86
2021/07/02 07:21:56;;;;;;;10.15;6.22;;;17.90;99.90;;;16.28;56.08;97742.28;4999765;28;20041;-86
2021/07/02 07:24:24;;;;;;;10.50;5.53;;;17.90;99.90;;;16.47;56.17;97736.72;4981933;28;20056;-86
2021/07/02 07:27:02;;;;;;;10.75;5.78;;;18.00;99.90;;;16.62;55.89;97743.59;4998631;28;20053;-87
2021/07/02 07:29:28;;;;;;;8.68;5.70;;;18.10;99.90;;;16.51;56.51;97741.66;5025125;28;20044;-86
2021/07/02 07:31:56;;;;;;;11.57;6.13;;;18.00;99.90;;;16.58;58.54;97738.63;4995827;28;20057;-87
2021/07/02 07:34:47;;;;;;;8.57;5.90;;;18.10;99.90;;;16.73;56.40;97746.34;5023255;28;20053;-86
2021/07/02 07:37:16;;;;;;;9.73;6.32;;;18.10;99.90;;;16.30;57.35;97748.25;4999628;28;20476;-86
2021/07/02 07:40:04;;;;;;;10.60;6.30;;;18.20;99.90;;;16.73;56.78;97756.84;5015931;28;20510;-87
2021/07/02 07:42:52;;;;;;;13.80;6.10;;;18.30;99.90;;;16.93;56.78;97762.59;5001942;28;20037;-87
2021/07/02 07:45:40;;;;;;;7.82;5.30;;;18.50;99.90;;;17.43;55.36;97771.53;5007340;28;20041;-87
2021/07/02 07:48:27;;;;;;;11.02;6.80;;;18.70;99.90;;;17.44;54.63;97773.19;5013141;28;20029;-86
2021/07/02 07:54:14;;;;;;;8.65;5.28;;;19.40;99.90;;;18.70;52.03;97769.69;5004760;28;20049;-86
2021/07/02 07:57:02;;;;;;;12.07;5.85;;;19.90;99.90;;;18.79;54.61;97766.44;5011142;28;20042;-86
2021/07/02 07:59:49;;;;;;;8.07;5.57;;;20.20;99.90;;;19.36;56.25;97767.50;5005725;28;20128;-86
2021/07/02 08:02:37;;;;;;;10.93;5.72;;;20.30;99.90;;;19.28;51.63;97775.09;5004099;28;20037;-86
2021/07/02 08:05:25;;;;;;;9.38;4.90;;;20.60;99.90;;;18.98;49.73;97776.44;5012332;28;20050;-87
2021/07/02 08:08:14;;;;;;;8.85;5.60;;;20.60;99.90;;;19.21;55.15;97773.91;4992682;28;20487;-86
2021/07/02 08:11:01;;;;;;;9.80;5.80;;;20.70;99.90;;;19.46;51.92;97786.06;5001548;28;20489;-86
2021/07/02 08:13:48;;;;;;;9.52;5.75;;;20.80;99.90;;;18.28;51.77;97792.00;4993144;28;20061;-86
2021/07/02 08:16:37;;;;;;;10.70;5.30;;;20.80;99.90;;;18.23;50.53;97804.63;5013641;28;20371;-87
2021/07/02 08:19:25;;;;;;;6.50;4.60;;;20.60;99.90;;;18.59;51.03;97794.13;5015466;28;20056;-86
2021/07/02 08:22:13;;;;;;;8.25;5.13;;;20.60;99.90;;;19.13;51.33;97792.88;4992620;28;20420;-85
2021/07/02 08:25:00;;;;;;;7.60;4.55;;;20.80;99.90;;;19.05;50.91;97795.25;5005545;28;20360;-84
2021/07/02 08:30:53;;;;;;;6.85;4.22;;;21.00;99.90;;;18.02;53.24;97801.69;5023286;28;20046;-84
2021/07/02 08:33:41;;;;;;;10.00;5.28;;;20.70;99.90;;;18.10;51.69;97802.84;5012176;28;20155;-85
2021/07/02 08:36:28;;;;;;;8.68;5.00;;;20.10;99.90;;;18.14;52.55;97795.59;4993259;28;20333;-85
2021/07/02 08:39:16;;;;;;;9.25;5.28;;;19.80;99.90;;;18.74;52.56;97794.81;5005465;28;20060;-84
2021/07/02 08:41:50;;;;;;;9.10;4.57;;;19.70;99.90;;;18.27;52.19;97792.94;4971195;28;20119;-84
2021/07/02 08:44:17;;;;;;;8.80;4.60;;;19.90;99.90;;;18.35;50.85;97786.19;5001803;28;20060;-84
2021/07/02 08:46:46;;;;;;;9.13;5.65;;;19.70;99.90;;;18.63;51.59;97788.66;5002746;28;20124;-85
2021/07/02 08:49:47;;;;;;;11.18;5.60;;;19.90;99.90;;;18.47;51.63;97788.91;5017811;28;20048;-84
2021/07/02 08:52:36;;;;;;;11.45;5.55;;;20.10;99.90;;;19.48;53.80;97796.44;5008517;28;20046;-83
2021/07/02 08:55:24;;;;;;;9.88;5.10;;;20.30;99.90;;;19.53;50.80;97803.06;4970503;28;20048;-83
2021/07/02 08:58:13;;;;;;;9.43;6.18;;;20.80;99.90;;;19.44;53.60;97807.22;5002128;28;20144;-84
2021/07/02 09:01:05;;;;;;;8.02;4.97;;;20.90;99.90;;;18.73;54.20;97806.28;5015613;28;20486;-84
2021/07/02 09:03:53;;;;;;;;;;;20.70;99.90;;;19.22;52.17;97818.50;4986513;28;20049;-86
2021/07/02 09:06:41;;;;;;;13.93;7.40;;;20.40;99.90;;;17.70;53.85;97825.72;5019908;28;20240;-86
2021/07/02 09:09:55;;;;;;;7.95;6.15;;;20.10;99.90;;;17.70;55.00;97825.72;5018880;28;20131;-86
2021/07/02 09:12:52;;;;;;;11.38;7.13;;;19.90;99.90;;;17.65;55.61;97833.06;5021036;28;20562;-87
2021/07/02 09:15:46;;;;;;;10.88;6.32;;;19.70;99.90;;;18.01;56.55;97823.66;5005998;28;20125;-86
2021/07/02 09:18:36;;;;;;;10.98;6.65;;;19.60;99.90;;;17.58;55.81;97831.78;5025898;28;20052;-86
2021/07/02 09:21:26;;;;;;;9.95;6.78;;;19.60;99.90;;;17.32;57.48;97837.81;4980958;28;20111;-86
2021/07/02 09:24:42;;;;;;;9.85;6.50;;;19.40;99.90;;;17.74;59.97;97833.31;5038738;28;20538;-85
2021/07/02 09:27:37;;;;;;;13.98;6.82;;;19.30;99.90;;;17.53;57.08;97834.72;4999205;28;20060;-86
2021/07/02 09:30:30;;;;;;;14.38;6.75;;;19.40;99.90;;;17.57;58.58;97838.84;4999795;28;20123;-85
2021/07/02 09:33:24;;;;;;;10.85;6.88;;;19.50;99.90;;;18.12;59.80;97835.09;4972754;28;20153;-85
2021/07/02 09:36:17;;;;;;;12.13;6.93;;;19.50;99.90;;;17.95;57.93;97832.81;5028812;28;20130;-85
2021/07/02 09:39:30;;;;;;;10.30;6.53;;;19.90;99.90;;;18.30;56.97;97837.41;4977606;28;20037;-86
2021/07/02 09:42:29;;;;;;;13.35;6.55;;;20.30;99.90;;;19.04;56.73;97837.44;5010200;28;20530;-86
2021/07/02 09:45:18;;;;;;;15.18;6.47;;;20.50;99.90;;;18.76;57.29;97832.34;5016200;28;20033;-85
2021/07/02 09:48:10;;;;;;;11.93;7.30;;;20.80;99.90;;;18.74;54.91;97843.94;4984983;28;20049;-86
2021/07/02 09:51:06;;;;;;;12.32;7.82;;;20.80;99.90;;;19.46;56.07;97835.25;5000805;28;20038;-87
2021/07/02 09:54:07;;;;;;;10.55;6.70;;;20.70;99.90;;;19.02;53.73;97832.28;4983841;28;20524;-86
2021/07/02 09:57:21;;;;;;;11.48;7.03;;;20.50;99.90;;;18.51;54.96;97843.78;5011669;28;20388;-86
2021/07/02 10:00:16;;;;;;;17.42;8.07;;;19.90;99.90;;;18.04;56.05;97845.31;4993134;28;20034;-86
2021/07/02 10:03:06;;;;;;;13.95;7.03;;;19.90;99.90;;;17.88;54.82;97858.66;5018165;28;20049;-87
2021/07/02 10:06:01;;;;;;;9.52;6.65;;;19.90;99.90;;;18.02;56.25;97851.59;5003710;28;20517;-86
2021/07/02 10:08:48;;;;;;;11.38;6.78;;;19.90;99.90;;;17.98;56.49;97848.34;5029927;28;20056;-87
2021/07/02 10:11:37;;;;;;;10.73;6.53;;;20.00;99.90;;;18.42;54.81;97844.41;4982728;28;20042;-86
2021/07/02 10:14:25;;;;;;;12.60;7.00;;;20.10;99.90;;;19.25;52.05;97846.41;4984737;28;20125;-86
2021/07/02 10:17:14;;;;;;;12.32;6.38;;;20.40;99.90;;;19.37;50.74;97845.50;4971008;28;20046;-86
2021/07/02 10:20:02;;;;;;;11.43;6.18;;;20.90;99.90;;;20.05;50.45;97833.34;5004657;28;20048;-86
2021/07/02 10:22:50;;;;;;;8.65;5.50;;;21.10;99.90;;;19.06;52.19;97838.16;4987089;28;20053;-87
2021/07/02 10:25:42;;;;;;;11.75;6.00;;;21.20;99.90;;;18.65;52.27;97842.78;4981600;28;20476;-88
2021/07/02 10:28:30;;;;;;;8.97;5.93;;;20.60;99.90;;;19.20;51.50;97845.88;5005011;28;20060;-87
2021/07/02 10:31:18;;;;;;;12.65;7.18;;;20.70;99.90;;;20.55;48.24;97840.91;5004826;28;20052;-87
2021/07/02 10:34:06;;;;;;;10.15;6.18;;;21.20;99.90;;;20.78;45.67;97847.03;5021853;28;20045;-87
2021/07/02 10:36:53;;;;;;;9.70;6.35;;;22.10;99.90;;;21.01;47.29;97839.88;4992042;28;20044;-87
2021/07/02 10:39:45;;;;;;;9.65;5.82;;;22.70;99.90;;;21.52;48.69;97833.94;5002516;28;20095;-87
2021/07/02 10:42:33;;;;;;;10.73;5.90;;;22.90;99.90;;;20.76;48.07;97848.13;4992521;28;20049;-87
2021/07/02 10:45:21;;;;;;;10.23;6.03;;;22.40;99.90;;;21.74;46.76;97834.81;4984764;28;20475;-87
2021/07/02 10:48:12;;;;;;;9.45;6.45;;;23.00;99.90;;;20.97;46.63;97845.53;5000284;28;20037;-88
2021/07/02 10:50:59;;;;;;;7.95;6.00;;;23.30;99.90;;;22.92;46.30;97834.34;4994760;28;20515;-87
2021/07/02 10:53:46;;;;;;;10.95;6.32;;;23.70;99.90;;;20.84;48.78;97838.59;5017802;28;20048;-87
2021/07/02 10:56:34;;;;;;;8.40;6.22;;;23.50;99.90;;;20.59;49.05;97838.88;5004422;28;20123;-88
2021/07/02 10:59:41;;;;;;;8.80;5.30;;;22.80;99.90;;;;;;5025676;28;20140;-88
2021/07/02 11:02:29;;;;;;;8.77;6.43;;;23.00;99.90;;;22.44;45.31;97821.81;5015802;28;20528;-87
2021/07/02 11:05:29;;;;;;;11.77;5.63;;;23.40;99.90;;;21.73;46.53;97819.91;5010133;28;20045;-87
2021/07/02 11:08:44;;;;;;;10.05;6.30;;;22.80;99.90;;;20.13;50.06;97822.22;4997838;28;20049;-86
2021/07/02 11:12:08;;;;;;;9.57;6.05;;;22.70;99.90;;;20.92;48.65;97823.97;5008841;28;20038;-89
2021/07/02 11:14:57;;;;;;;9.77;6.80;;;22.90;99.90;;;20.32;48.99;97833.94;5006852;28;20057;-89
2021/07/02 11:17:50;;;;;;;9.52;7.20;;;22.70;99.90;;;20.06;51.21;97832.38;5028547;28;20466;-87
2021/07/02 11:20:37;;;;;;;9.35;6.20;;;22.60;99.90;;;20.18;51.22;97822.69;5000908;28;20321;-87
2021/07/02 11:23:25;;;;;;;9.57;6.63;;;22.60;99.90;;;21.42;49.95;97821.66;5001822;28;20045;-88
2021/07/02 11:26:43;;;;;;;13.52;8.00;;;22.40;99.90;;;20.30;51.17;97833.22;4987405;28;20046;-88
2021/07/02 11:29:36;;;;;;;12.68;7.78;;;22.20;99.90;;;20.29;50.97;97827.13;4993496;28;20054;-87
2021/07/02 11:32:31;;;;;;;10.35;7.05;;;21.90;99.90;;;19.33;55.77;97846.66;4990977;28;20037;-88
2021/07/02 11:35:35;;;;;;;11.65;6.82;;;21.70;99.90;;;19.91;54.34;97827.44;5009027;28;20429;-87
2021/07/02 11:38:30;;;;;;;11.30;6.60;;;21.50;99.90;;;20.62;51.86;97828.94;5012227;28;20054;-88
2021/07/02 11:41:31;;;;;;;12.95;6.75;;;21.90;99.90;;;20.41;50.84;97820.03;5002041;28;20049;-86
2021/07/02 11:44:09;;;;;;;10.27;6.10;;;22.10;99.90;;;20.76;52.20;97824.38;5013781;28;20185;-87
2021/07/02 11:46:36;;;;;;;10.30;7.07;;;22.20;99.90;;;20.37;53.31;97819.47;4968854;28;20471;-86
2021/07/02 11:49:05;;;;;;;10.68;6.68;;;22.30;99.90;;;20.31;52.70;97819.94;4999573;28;20043;-87